Main page
METAR-TAF:

METAR-TAF

Airports :

Kuusamo Airport

Kuusamo, Finland

latitude: 65-58N, longitude: 029-11E, elevation: 262 m

Current weather observation

The report was made 29 minutes ago, at 03:50 UTC
Wind 14 kt from the Northwest, varying between West/Northwest and North
Temperature -6°C
Humidity 86%
Pressure 987 hPa
Visibility: 9000 m
Few clouds at a height of 1100 ft
Broken clouds at a height of 2900 ft
Broken clouds at a height of 3900 ft
light snow

METAR: EFKS 250350Z AUTO 32014KT 290V350 9000 -SN FEW011 BKN029 BKN039 M06/M08 Q0987

Time: 06:19 (04:19 UTC)

Forecast

The report was made 7 hours and 53 minutes ago, at 20:26 UTC
Forecast valid from 24 at 21 UTC to 24 at 23 UTC
Wind 15 kt from the Northwest
Visibility 10 km or more
Overcast at a height of 1500 ft
Temporary
from 24 at 21 UTC to 24 at 23 UTC
Visibility: 4000 m
Broken clouds at a height of 1300 ft
light snow

TAF: EFKS 242026Z 2421/2423 32015KT 9999 OVC015 TEMPO 2421/2423 4000 -SN BKN013

Weather observations and forecasts of more than 4000 airports (METAR and TAF reports).

The available stations are represented by yellow and red dots on the map.

Hover mouse over dot to see the name of the station.

Then click to see weather observations and forecasts.

To change the map : click on the green buttons with a black cross to zoom in, on the green button with a dash to zoom out, or on the green arrows for adjacent maps.


METAR-TAF: